Weather at La Olivia Agricultural Airfield

Public forecast

Using degrees Celsius for public forecast. Weather courtesy of forecast.io.

Closest aviation weather report (METAR) to La Olivia Agricultural Airfield

Closest report is Ignacio Agramonte International Airport, 34.6 nm (64.1 km) E.

2024/07/16 18:50 (retrieved 1 hour ago)

MUCM 161850Z 04015KT 020V080 9000 SCT030 34/23 Q1016

Closest aviation forecast (TAF) to La Olivia Agricultural Airfield

Closest forecast is Ignacio Agramonte International Airport, 34.6 nm (64.1 km) E.

2024/07/16 18:04 (retrieved 2 hours ago)

TAF MUCM 161700Z 1618/1718 06011KT 9000 SCT020 TEMPO 1621/1624 FEW020CB BKN020 BECMG 1701/1703 VRB04KT